Mauna Loa — WDC2819 — position and weather

sailwx.info

Track history (hours):
 
Tides and Currents Weather Stations Pressure Air Temp Water Temp Dewpoint Dewpoint Depression Visibility Wind Speed Wind Dir Waves Ship Positions

Mauna Loa

Owner: Salmon Bay Barge Line, Inc., Seattle, WA. More information available from US FCC via Universal Licensing System and Coast Guard Vessel Documentation Center.

Last reported at 2017-Oct-16 08:55 UTC. Time now 2017-Oct-19 14:21 UTC.
Position N 45°34' W 122°43'.

Length 37 m; draft 4.6 m.

Type: Tow > 200 m length. MMSI: 366998090.

Date/timePositionNaut miles runAvg speedWind from/ knotsBaromVisibWave heightAir tempDewpointWater temp
2017-Oct-16 08:55N 45°34' W 122°43'0 0.0
2017-Oct-16 08:30N 45°34' W 122°43'0 0.0
2017-Oct-16 08:01N 45°34' W 122°43'3 4.5
2017-Oct-16 07:22N 45°35' W 122°46'3 9.4
2017-Oct-16 07:00N 45°39' W 122°46'3 5.9
2017-Oct-16 06:31N 45°38' W 122°42'0 0.4
2017-Oct-16 06:00N 45°38' W 122°42'2 3.7
2017-Oct-16 05:30N 45°39' W 122°45'2 3.6
2017-Oct-16 05:00N 45°38' W 122°42'2 4.8
2017-Oct-16 04:30N 45°39' W 122°46'2 4.5
2017-Oct-16 04:01N 45°41' W 122°46'2 4.4
2017-Oct-16 03:31N 45°44' W 122°46'2 4.6
2017-Oct-16 03:00N 45°46' W 122°46'2 4.4
2017-Oct-16 02:30N 45°48' W 122°47'2 4.2
2017-Oct-16 02:01N 45°50' W 122°47'2 4.2
2017-Oct-16 01:31N 45°52' W 122°47'2 4.2
2017-Oct-16 01:00N 45°54' W 122°48'2 4.2
2017-Oct-16 00:30N 45°56' W 122°48'2 4.3
2017-Oct-16 00:00N 45°58' W 122°49'2 4.7
2017-Oct-15 23:31N 46°00' W 122°51'2 4.9
2017-Oct-15 23:01N 46°02' W 122°53'3 5.4
2017-Oct-15 22:31N 46°05' W 122°54'3 5.9
2017-Oct-15 22:00N 46°06' W 122°58'3 6.2
2017-Oct-15 21:31N 46°08' W 123°01'3 6.4
2017-Oct-15 21:00N 46°10' W 123°05'3 6.5
2017-Oct-15 20:30N 46°11' W 123°09'3 6.9
2017-Oct-15 20:00N 46°10' W 123°14'4 6.6
2017-Oct-15 19:25N 46°09' W 123°19'3 6.7
2017-Oct-15 19:00N 46°09' W 123°23'3 6.6
2017-Oct-15 18:31N 46°12' W 123°26'3 6.7
2017-Oct-15 18:00N 46°15' W 123°26'3 6.5
2017-Oct-15 17:31N 46°16' W 123°31'3 7.0
2017-Oct-15 17:00N 46°15' W 123°36'4 7.2
2017-Oct-15 16:30N 46°15' W 123°41'4 7.4
2017-Oct-15 16:01N 46°13' W 123°45'4 7.3
2017-Oct-15 15:31N 46°12' W 123°50'4 7.1
2017-Oct-15 15:00N 46°12' W 123°55'7 6.3
2017-Oct-15 13:54N 46°15' W 124°04'2 6.1
2017-Oct-15 13:30N 46°14' W 124°07'3 5.3
2017-Oct-15 13:00N 46°13' W 124°10'2 4.8
2017-Oct-15 12:30N 46°12' W 124°13'2 4.6
2017-Oct-15 12:00N 46°13' W 124°17'3 5.1
2017-Oct-15 11:30N 46°15' W 124°18'3 5.9
2017-Oct-15 11:01N 46°18' W 124°19'3 6.4
2017-Oct-15 10:30N 46°21' W 124°20'3 6.4
2017-Oct-15 10:00N 46°25' W 124°21'3 6.2
2017-Oct-15 09:30N 46°28' W 124°22'3 6.1
2017-Oct-15 09:00N 46°31' W 124°23'3 5.5
2017-Oct-15 08:30N 46°33' W 124°24'3 6.7
2017-Oct-15 08:01N 46°36' W 124°25'3 6.7
2017-Oct-15 07:30N 46°40' W 124°26'3 6.8
2017-Oct-15 07:00N 46°43' W 124°27'3 6.7
2017-Oct-15 06:30N 46°46' W 124°27'3 6.8
2017-Oct-15 06:00N 46°50' W 124°28'3 6.8
2017-Oct-15 05:30N 46°53' W 124°29'3 6.8
2017-Oct-15 05:00N 46°56' W 124°30'82 5.6
2017-Oct-14 14:29N 48°16' W 124°57'4 5.2
2017-Oct-14 13:43N 48°20' W 124°54'2 5.5
2017-Oct-14 13:24N 48°21' W 124°52'2 5.8
2017-Oct-14 12:59N 48°23' W 124°50'3 6.1
2017-Oct-14 12:29N 48°25' W 124°46'3 6.0
2017-Oct-14 12:00N 48°25' W 124°42'3 7.0
2017-Oct-14 11:30N 48°24' W 124°37'4 7.7
2017-Oct-14 11:00N 48°23' W 124°32'4 7.7
2017-Oct-14 10:30N 48°21' W 124°27'4 7.6
2017-Oct-14 09:57N 48°19' W 124°21'3 7.3
2017-Oct-14 09:28N 48°18' W 124°16'12 6.9
2017-Oct-14 07:47N 48°13' W 124°00'2 6.3
2017-Oct-14 07:27N 48°12' W 123°58'3 6.0
2017-Oct-14 06:57N 48°11' W 123°53'3 6.3
2017-Oct-14 06:30N 48°11' W 123°49'3 6.4
2017-Oct-14 05:59N 48°12' W 123°44'3 6.3
2017-Oct-14 05:30N 48°12' W 123°40'3 6.6
2017-Oct-14 05:00N 48°12' W 123°35'3 6.2
2017-Oct-14 04:30N 48°13' W 123°30'3 6.1
2017-Oct-14 04:00N 48°15' W 123°27'3 6.2
2017-Oct-14 03:27N 48°17' W 123°23'3 6.7
2017-Oct-14 03:00N 48°19' W 123°19'4 7.4
2017-Oct-14 02:30N 48°21' W 123°15'4 7.5
2017-Oct-14 02:00N 48°24' W 123°12'4 7.5
2017-Oct-14 01:30N 48°28' W 123°12'4 7.5
2017-Oct-14 00:59N 48°32' W 123°13'5 7.9
2017-Oct-14 00:22N 48°37' W 123°14'3 8.1
2017-Oct-13 23:57N 48°40' W 123°15'3 6.4
2017-Oct-13 23:25N 48°43' W 123°12'3 7.6
2017-Oct-13 23:00N 48°45' W 123°08'4 7.6
2017-Oct-13 22:29N 48°46' W 123°03'3 6.3
2017-Oct-13 22:00N 48°49' W 123°02'4 7.7
2017-Oct-13 21:29N 48°52' W 123°06'4 7.1
2017-Oct-13 20:59N 48°55' W 123°10'3 6.8
2017-Oct-13 20:30N 48°57' W 123°13'3 6.1
2017-Oct-13 20:00N 48°59' W 123°17'3 6.1
2017-Oct-13 19:30N 49°01' W 123°20'3 6.2
2017-Oct-13 19:00N 49°04' W 123°20'3 5.2
2017-Oct-13 18:30N 49°06' W 123°18'2 4.4
2017-Oct-13 18:00N 49°08' W 123°15'2 4.1
2017-Oct-13 17:30N 49°07' W 123°12'3 5.2
2017-Oct-13 17:00N 49°06' W 123°08'3 5.7
2017-Oct-13 16:30N 49°08' W 123°04'3 5.9
2017-Oct-13 16:00N 49°09' W 123°00'0 0.3
2017-Oct-13 15:30N 49°09' W 123°00'0 0.0
2017-Oct-13 14:45N 49°09' W 123°00'0 0.0
2017-Oct-13 14:18N 49°09' W 123°00'0 0.0
2017-Oct-13 13:58N 49°09' W 123°00'0 0.0
2017-Oct-13 13:28N 49°09' W 123°00'0 0.0
2017-Oct-13 12:55N 49°09' W 123°00'0 0.0
2017-Oct-13 12:29N 49°09' W 123°00'0 0.0
2017-Oct-13 11:59N 49°09' W 123°00'0 0.0
2017-Oct-13 11:29N 49°09' W 123°00'0 0.0
2017-Oct-13 10:57N 49°09' W 123°00'0 0.0
2017-Oct-13 10:27N 49°09' W 123°00'0 0.0
2017-Oct-13 09:51N 49°09' W 123°00'0 0.0
2017-Oct-13 09:22N 49°09' W 123°00'0 0.0
2017-Oct-13 08:28N 49°09' W 123°00'0 0.0
2017-Oct-13 07:59N 49°09' W 123°00'0 0.0
2017-Oct-13 07:29N 49°09' W 123°00'0 0.0
2017-Oct-13 06:59N 49°09' W 123°00'0 0.0
2017-Oct-13 06:24N 49°09' W 123°00'0 0.0
2017-Oct-13 06:00N 49°09' W 123°00'0 0.0
2017-Oct-13 05:30N 49°09' W 123°00'0 0.0
2017-Oct-13 04:55N 49°09' W 123°00'0 0.0
2017-Oct-13 04:07N 49°09' W 123°00'0 0.0
2017-Oct-13 03:49N 49°09' W 123°00'0 0.0
2017-Oct-13 03:26N 49°09' W 123°00'0 0.0
2017-Oct-13 02:20N 49°09' W 123°00'0 0.0
2017-Oct-13 01:57N 49°09' W 123°00'0 0.0
2017-Oct-13 01:21N 49°09' W 123°00'0 0.0
2017-Oct-13 00:46N 49°09' W 123°00'0 0.0
2017-Oct-13 00:10N 49°09' W 123°00'0 0.0
2017-Oct-12 23:49N 49°09' W 123°00'0 0.0
2017-Oct-12 23:22N 49°09' W 123°00'0 0.0
2017-Oct-12 22:59N 49°09' W 123°00'0 0.0
2017-Oct-12 22:29N 49°09' W 123°00'0 0.0
2017-Oct-12 21:42N 49°09' W 123°00'0 0.0
2017-Oct-12 21:18N 49°09' W 123°00'0 0.0
2017-Oct-12 21:00N 49°09' W 123°00'0 0.0
2017-Oct-12 20:30N 49°09' W 123°00'0 0.0
2017-Oct-12 19:10N 49°09' W 123°00'0 0.0
2017-Oct-12 18:52N 49°09' W 123°00'0 0.0
2017-Oct-12 18:11N 49°09' W 123°00'0 0.0
2017-Oct-12 17:59N 49°09' W 123°00'0 0.0
2017-Oct-12 17:29N 49°09' W 123°00'0 0.0
2017-Oct-12 16:30N 49°09' W 123°00'0 0.0
2017-Oct-12 11:07N 49°09' W 123°00'0 0.0
2017-Oct-12 10:43N 49°09' W 123°00'0 0.0
2017-Oct-12 07:02N 49°09' W 123°00'0 0.0
2017-Oct-12 06:44N 49°09' W 123°00'0 0.0
2017-Oct-12 05:20N 49°09' W 123°00'0 0.0
2017-Oct-12 04:50N 49°09' W 123°00'0 0.0
2017-Oct-11 22:18N 49°09' W 123°00'0 0.0
2017-Oct-11 20:14N 49°09' W 123°00'0 0.0
2017-Oct-11 19:50N 49°09' W 123°00'0 0.0
2017-Oct-11 19:26N 49°09' W 123°00'0 0.0
2017-Oct-10 23:37N 49°09' W 123°00'0 0.0
2017-Oct-10 22:55N 49°09' W 123°00'0 0.1
2017-Oct-10 22:29N 49°09' W 123°00'1 1.6
2017-Oct-10 22:00N 49°09' W 123°01'3 6.9
2017-Oct-10 21:30N 49°07' W 123°06'4 7.4
2017-Oct-10 21:00N 49°07' W 123°11'4 7.5
2017-Oct-10 20:30N 49°07' W 123°17'3 6.5
2017-Oct-10 20:00N 49°04' W 123°19'3 5.8
2017-Oct-10 19:30N 49°02' W 123°16'4 7.6
2017-Oct-10 19:00N 48°59' W 123°12'4 7.7
2017-Oct-10 18:30N 48°56' W 123°08'3 6.8
2017-Oct-10 18:00N 48°55' W 123°03'4 7.7
2017-Oct-10 17:30N 48°52' W 122°59'4 7.1
2017-Oct-10 17:00N 48°50' W 122°55'4 6.8
2017-Oct-10 16:29N 48°47' W 122°51'4 6.6
2017-Oct-10 15:52N 48°45' W 122°45'2 6.5
2017-Oct-10 15:30N 48°43' W 122°44'3 6.3
2017-Oct-10 15:00N 48°40' W 122°42'8 7.5
2017-Oct-10 14:00N 48°33' W 122°45'4 8.2
2017-Oct-10 13:30N 48°29' W 122°44'4 7.2
2017-Oct-10 13:00N 48°25' W 122°44'19 5.3
2017-Oct-10 09:26N 48°07' W 122°39'7 8.2
2017-Oct-10 08:35N 48°00' W 122°36'1 8.8
2017-Oct-10 08:28N 47°59' W 122°35'5 9.8
2017-Oct-10 08:00N 47°56' W 122°30'5 9.5
2017-Oct-10 07:30N 47°52' W 122°27'5 9.0
2017-Oct-10 07:00N 47°47' W 122°26'4 8.7
2017-Oct-10 06:30N 47°43' W 122°26'4 8.7
2017-Oct-10 06:00N 47°39' W 122°26'4 8.5
2017-Oct-10 05:30N 47°36' W 122°22'1 2.3
2017-Oct-10 05:00N 47°35' W 122°22'1 2.6
2017-Oct-10 04:30N 47°33' W 122°21'0 0.0
2017-Oct-10 03:58N 47°33' W 122°21'0 0.0
2017-Oct-10 03:29N 47°33' W 122°21'0 0.0
2017-Oct-10 02:53N 47°33' W 122°21'0 0.0
2017-Oct-10 02:29N 47°33' W 122°21'0 0.0
2017-Oct-10 01:59N 47°33' W 122°21'  
2017-Oct-06 15:22N 47°33' W 122°21'0 0.0
2017-Oct-06 14:59N 47°33' W 122°21'0 0.0
2017-Oct-06 14:29N 47°33' W 122°21'0 0.0
2017-Oct-06 13:54N 47°33' W 122°21'0 0.0
2017-Oct-06 13:30N 47°33' W 122°21'0 0.0
2017-Oct-06 13:00N 47°33' W 122°21'0 0.0
2017-Oct-06 12:30N 47°33' W 122°21'0 0.0
2017-Oct-06 12:00N 47°33' W 122°21'0 0.0
2017-Oct-06 11:30N 47°33' W 122°21'0 0.0
2017-Oct-06 10:58N 47°33' W 122°21'0 0.0
2017-Oct-06 10:25N 47°33' W 122°21'0 0.0
2017-Oct-06 09:59N 47°33' W 122°21'0 0.0
2017-Oct-06 09:30N 47°33' W 122°21'0 0.0
2017-Oct-06 08:59N 47°33' W 122°21'  
Track history (hours):
 
Tides and Currents Weather Stations Pressure Air Temp Water Temp Dewpoint Dewpoint Depression Visibility Wind Speed Wind Dir Waves Ship Positions

Mauna Loa

Owner: Salmon Bay Barge Line, Inc., Seattle, WA. More information available from US FCC via Universal Licensing System and Coast Guard Vessel Documentation Center.

Last reported at 2017-Oct-16 08:55 UTC. Time now 2017-Oct-19 14:21 UTC.
Position N 45°34' W 122°43'.

Length 37 m; draft 4.6 m.

Type: Tow > 200 m length. MMSI: 366998090.

Date/timePositionNaut miles runAvg speedWind from/ knotsBaromVisibWave heightAir tempDewpointWater temp
2017-Oct-16 08:55N 45°34' W 122°43'0 0.0
2017-Oct-16 08:30N 45°34' W 122°43'0 0.0
2017-Oct-16 08:01N 45°34' W 122°43'3 4.5
2017-Oct-16 07:22N 45°35' W 122°46'3 9.4
2017-Oct-16 07:00N 45°39' W 122°46'3 5.9
2017-Oct-16 06:31N 45°38' W 122°42'0 0.4
2017-Oct-16 06:00N 45°38' W 122°42'2 3.7
2017-Oct-16 05:30N 45°39' W 122°45'2 3.6
2017-Oct-16 05:00N 45°38' W 122°42'2 4.8
2017-Oct-16 04:30N 45°39' W 122°46'2 4.5
2017-Oct-16 04:01N 45°41' W 122°46'2 4.4
2017-Oct-16 03:31N 45°44' W 122°46'2 4.6
2017-Oct-16 03:00N 45°46' W 122°46'2 4.4
2017-Oct-16 02:30N 45°48' W 122°47'2 4.2
2017-Oct-16 02:01N 45°50' W 122°47'2 4.2
2017-Oct-16 01:31N 45°52' W 122°47'2 4.2
2017-Oct-16 01:00N 45°54' W 122°48'2 4.2
2017-Oct-16 00:30N 45°56' W 122°48'2 4.3
2017-Oct-16 00:00N 45°58' W 122°49'2 4.7
2017-Oct-15 23:31N 46°00' W 122°51'2 4.9
2017-Oct-15 23:01N 46°02' W 122°53'3 5.4
2017-Oct-15 22:31N 46°05' W 122°54'3 5.9
2017-Oct-15 22:00N 46°06' W 122°58'3 6.2
2017-Oct-15 21:31N 46°08' W 123°01'3 6.4
2017-Oct-15 21:00N 46°10' W 123°05'3 6.5
2017-Oct-15 20:30N 46°11' W 123°09'3 6.9
2017-Oct-15 20:00N 46°10' W 123°14'4 6.6
2017-Oct-15 19:25N 46°09' W 123°19'3 6.7
2017-Oct-15 19:00N 46°09' W 123°23'3 6.6
2017-Oct-15 18:31N 46°12' W 123°26'3 6.7
2017-Oct-15 18:00N 46°15' W 123°26'3 6.5
2017-Oct-15 17:31N 46°16' W 123°31'3 7.0
2017-Oct-15 17:00N 46°15' W 123°36'4 7.2
2017-Oct-15 16:30N 46°15' W 123°41'4 7.4
2017-Oct-15 16:01N 46°13' W 123°45'4 7.3
2017-Oct-15 15:31N 46°12' W 123°50'4 7.1
2017-Oct-15 15:00N 46°12' W 123°55'7 6.3
2017-Oct-15 13:54N 46°15' W 124°04'2 6.1
2017-Oct-15 13:30N 46°14' W 124°07'3 5.3
2017-Oct-15 13:00N 46°13' W 124°10'2 4.8
2017-Oct-15 12:30N 46°12' W 124°13'2 4.6
2017-Oct-15 12:00N 46°13' W 124°17'3 5.1
2017-Oct-15 11:30N 46°15' W 124°18'3 5.9
2017-Oct-15 11:01N 46°18' W 124°19'3 6.4
2017-Oct-15 10:30N 46°21' W 124°20'3 6.4
2017-Oct-15 10:00N 46°25' W 124°21'3 6.2
2017-Oct-15 09:30N 46°28' W 124°22'3 6.1
2017-Oct-15 09:00N 46°31' W 124°23'3 5.5
2017-Oct-15 08:30N 46°33' W 124°24'3 6.7
2017-Oct-15 08:01N 46°36' W 124°25'3 6.7
2017-Oct-15 07:30N 46°40' W 124°26'3 6.8
2017-Oct-15 07:00N 46°43' W 124°27'3 6.7
2017-Oct-15 06:30N 46°46' W 124°27'3 6.8
2017-Oct-15 06:00N 46°50' W 124°28'3 6.8
2017-Oct-15 05:30N 46°53' W 124°29'3 6.8
2017-Oct-15 05:00N 46°56' W 124°30'82 5.6
2017-Oct-14 14:29N 48°16' W 124°57'4 5.2
2017-Oct-14 13:43N 48°20' W 124°54'2 5.5
2017-Oct-14 13:24N 48°21' W 124°52'2 5.8
2017-Oct-14 12:59N 48°23' W 124°50'3 6.1
2017-Oct-14 12:29N 48°25' W 124°46'3 6.0
2017-Oct-14 12:00N 48°25' W 124°42'3 7.0
2017-Oct-14 11:30N 48°24' W 124°37'4 7.7
2017-Oct-14 11:00N 48°23' W 124°32'4 7.7
2017-Oct-14 10:30N 48°21' W 124°27'4 7.6
2017-Oct-14 09:57N 48°19' W 124°21'3 7.3
2017-Oct-14 09:28N 48°18' W 124°16'12 6.9
2017-Oct-14 07:47N 48°13' W 124°00'2 6.3
2017-Oct-14 07:27N 48°12' W 123°58'3 6.0
2017-Oct-14 06:57N 48°11' W 123°53'3 6.3
2017-Oct-14 06:30N 48°11' W 123°49'3 6.4
2017-Oct-14 05:59N 48°12' W 123°44'3 6.3
2017-Oct-14 05:30N 48°12' W 123°40'3 6.6
2017-Oct-14 05:00N 48°12' W 123°35'3 6.2
2017-Oct-14 04:30N 48°13' W 123°30'3 6.1
2017-Oct-14 04:00N 48°15' W 123°27'3 6.2
2017-Oct-14 03:27N 48°17' W 123°23'3 6.7
2017-Oct-14 03:00N 48°19' W 123°19'4 7.4
2017-Oct-14 02:30N 48°21' W 123°15'4 7.5
2017-Oct-14 02:00N 48°24' W 123°12'4 7.5
2017-Oct-14 01:30N 48°28' W 123°12'4 7.5
2017-Oct-14 00:59N 48°32' W 123°13'5 7.9
2017-Oct-14 00:22N 48°37' W 123°14'3 8.1
2017-Oct-13 23:57N 48°40' W 123°15'3 6.4
2017-Oct-13 23:25N 48°43' W 123°12'3 7.6
2017-Oct-13 23:00N 48°45' W 123°08'4 7.6
2017-Oct-13 22:29N 48°46' W 123°03'3 6.3
2017-Oct-13 22:00N 48°49' W 123°02'4 7.7
2017-Oct-13 21:29N 48°52' W 123°06'4 7.1
2017-Oct-13 20:59N 48°55' W 123°10'3 6.8
2017-Oct-13 20:30N 48°57' W 123°13'3 6.1
2017-Oct-13 20:00N 48°59' W 123°17'3 6.1
2017-Oct-13 19:30N 49°01' W 123°20'3 6.2
2017-Oct-13 19:00N 49°04' W 123°20'3 5.2
2017-Oct-13 18:30N 49°06' W 123°18'2 4.4
2017-Oct-13 18:00N 49°08' W 123°15'2 4.1
2017-Oct-13 17:30N 49°07' W 123°12'3 5.2
2017-Oct-13 17:00N 49°06' W 123°08'3 5.7
2017-Oct-13 16:30N 49°08' W 123°04'3 5.9
2017-Oct-13 16:00N 49°09' W 123°00'0 0.3
2017-Oct-13 15:30N 49°09' W 123°00'0 0.0
2017-Oct-13 14:45N 49°09' W 123°00'0 0.0
2017-Oct-13 14:18N 49°09' W 123°00'0 0.0
2017-Oct-13 13:58N 49°09' W 123°00'0 0.0
2017-Oct-13 13:28N 49°09' W 123°00'0 0.0
2017-Oct-13 12:55N 49°09' W 123°00'0 0.0
2017-Oct-13 12:29N 49°09' W 123°00'0 0.0
2017-Oct-13 11:59N 49°09' W 123°00'0 0.0
2017-Oct-13 11:29N 49°09' W 123°00'0 0.0
2017-Oct-13 10:57N 49°09' W 123°00'0 0.0
2017-Oct-13 10:27N 49°09' W 123°00'0 0.0
2017-Oct-13 09:51N 49°09' W 123°00'0 0.0
2017-Oct-13 09:22N 49°09' W 123°00'0 0.0
2017-Oct-13 08:28N 49°09' W 123°00'0 0.0
2017-Oct-13 07:59N 49°09' W 123°00'0 0.0
2017-Oct-13 07:29N 49°09' W 123°00'0 0.0
2017-Oct-13 06:59N 49°09' W 123°00'0 0.0
2017-Oct-13 06:24N 49°09' W 123°00'0 0.0
2017-Oct-13 06:00N 49°09' W 123°00'0 0.0
2017-Oct-13 05:30N 49°09' W 123°00'0 0.0
2017-Oct-13 04:55N 49°09' W 123°00'0 0.0
2017-Oct-13 04:07N 49°09' W 123°00'0 0.0
2017-Oct-13 03:49N 49°09' W 123°00'0 0.0
2017-Oct-13 03:26N 49°09' W 123°00'0 0.0
2017-Oct-13 02:20N 49°09' W 123°00'0 0.0
2017-Oct-13 01:57N 49°09' W 123°00'0 0.0
2017-Oct-13 01:21N 49°09' W 123°00'0 0.0
2017-Oct-13 00:46N 49°09' W 123°00'0 0.0
2017-Oct-13 00:10N 49°09' W 123°00'0 0.0
2017-Oct-12 23:49N 49°09' W 123°00'0 0.0
2017-Oct-12 23:22N 49°09' W 123°00'0 0.0
2017-Oct-12 22:59N 49°09' W 123°00'0 0.0
2017-Oct-12 22:29N 49°09' W 123°00'0 0.0
2017-Oct-12 21:42N 49°09' W 123°00'0 0.0
2017-Oct-12 21:18N 49°09' W 123°00'0 0.0
2017-Oct-12 21:00N 49°09' W 123°00'0 0.0
2017-Oct-12 20:30N 49°09' W 123°00'0 0.0
2017-Oct-12 19:10N 49°09' W 123°00'0 0.0
2017-Oct-12 18:52N 49°09' W 123°00'0 0.0
2017-Oct-12 18:11N 49°09' W 123°00'0 0.0
2017-Oct-12 17:59N 49°09' W 123°00'0 0.0
2017-Oct-12 17:29N 49°09' W 123°00'0 0.0
2017-Oct-12 16:30N 49°09' W 123°00'0 0.0
2017-Oct-12 11:07N 49°09' W 123°00'0 0.0
2017-Oct-12 10:43N 49°09' W 123°00'0 0.0
2017-Oct-12 07:02N 49°09' W 123°00'0 0.0
2017-Oct-12 06:44N 49°09' W 123°00'0 0.0
2017-Oct-12 05:20N 49°09' W 123°00'0 0.0
2017-Oct-12 04:50N 49°09' W 123°00'0 0.0
2017-Oct-11 22:18N 49°09' W 123°00'0 0.0
2017-Oct-11 20:14N 49°09' W 123°00'0 0.0
2017-Oct-11 19:50N 49°09' W 123°00'0 0.0
2017-Oct-11 19:26N 49°09' W 123°00'0 0.0
2017-Oct-10 23:37N 49°09' W 123°00'0 0.0
2017-Oct-10 22:55N 49°09' W 123°00'0 0.1
2017-Oct-10 22:29N 49°09' W 123°00'1 1.6
2017-Oct-10 22:00N 49°09' W 123°01'3 6.9
2017-Oct-10 21:30N 49°07' W 123°06'4 7.4
2017-Oct-10 21:00N 49°07' W 123°11'4 7.5
2017-Oct-10 20:30N 49°07' W 123°17'3 6.5
2017-Oct-10 20:00N 49°04' W 123°19'3 5.8
2017-Oct-10 19:30N 49°02' W 123°16'4 7.6
2017-Oct-10 19:00N 48°59' W 123°12'4 7.7
2017-Oct-10 18:30N 48°56' W 123°08'3 6.8
2017-Oct-10 18:00N 48°55' W 123°03'4 7.7
2017-Oct-10 17:30N 48°52' W 122°59'4 7.1
2017-Oct-10 17:00N 48°50' W 122°55'4 6.8
2017-Oct-10 16:29N 48°47' W 122°51'4 6.6
2017-Oct-10 15:52N 48°45' W 122°45'2 6.5
2017-Oct-10 15:30N 48°43' W 122°44'3 6.3
2017-Oct-10 15:00N 48°40' W 122°42'8 7.5
2017-Oct-10 14:00N 48°33' W 122°45'4 8.2
2017-Oct-10 13:30N 48°29' W 122°44'4 7.2
2017-Oct-10 13:00N 48°25' W 122°44'19 5.3
2017-Oct-10 09:26N 48°07' W 122°39'7 8.2
2017-Oct-10 08:35N 48°00' W 122°36'1 8.8
2017-Oct-10 08:28N 47°59' W 122°35'5 9.8
2017-Oct-10 08:00N 47°56' W 122°30'5 9.5
2017-Oct-10 07:30N 47°52' W 122°27'5 9.0
2017-Oct-10 07:00N 47°47' W 122°26'4 8.7
2017-Oct-10 06:30N 47°43' W 122°26'4 8.7
2017-Oct-10 06:00N 47°39' W 122°26'4 8.5
2017-Oct-10 05:30N 47°36' W 122°22'1 2.3
2017-Oct-10 05:00N 47°35' W 122°22'1 2.6
2017-Oct-10 04:30N 47°33' W 122°21'0 0.0
2017-Oct-10 03:58N 47°33' W 122°21'0 0.0
2017-Oct-10 03:29N 47°33' W 122°21'0 0.0
2017-Oct-10 02:53N 47°33' W 122°21'0 0.0
2017-Oct-10 02:29N 47°33' W 122°21'0 0.0
2017-Oct-10 01:59N 47°33' W 122°21'  
2017-Oct-06 15:22N 47°33' W 122°21'0 0.0
2017-Oct-06 14:59N 47°33' W 122°21'0 0.0
2017-Oct-06 14:29N 47°33' W 122°21'0 0.0
2017-Oct-06 13:54N 47°33' W 122°21'0 0.0
2017-Oct-06 13:30N 47°33' W 122°21'0 0.0
2017-Oct-06 13:00N 47°33' W 122°21'0 0.0
2017-Oct-06 12:30N 47°33' W 122°21'0 0.0
2017-Oct-06 12:00N 47°33' W 122°21'0 0.0
2017-Oct-06 11:30N 47°33' W 122°21'0 0.0
2017-Oct-06 10:58N 47°33' W 122°21'0 0.0
2017-Oct-06 10:25N 47°33' W 122°21'0 0.0
2017-Oct-06 09:59N 47°33' W 122°21'0 0.0
2017-Oct-06 09:30N 47°33' W 122°21'0 0.0
2017-Oct-06 08:59N 47°33' W 122°21'  

Dump ship's entire track history